createdAt,value
2022-07-29T00:03:17.585Z,2.00
2022-07-29T00:08:49.113Z,0.00
2022-07-29T00:14:21.357Z,2.00
2022-07-29T00:19:53.130Z,2.00
2022-07-29T00:25:24.690Z,2.00
2022-07-29T00:30:56.466Z,2.00
2022-07-29T00:36:28.834Z,1.00
2022-07-29T00:42:00.793Z,2.00
2022-07-29T00:47:32.481Z,1.00
2022-07-29T00:53:04.296Z,2.00
2022-07-29T00:58:36.033Z,2.00
2022-07-29T03:04:51.408Z,4.00
2022-07-29T03:10:23.196Z,7.00
2022-07-29T03:15:55.353Z,14.00
2022-07-29T03:21:26.855Z,33.00
2022-07-29T03:26:58.962Z,84.00
2022-07-29T03:32:30.378Z,190.00
2022-07-29T03:38:02.435Z,372.00
2022-07-29T03:43:34.697Z,657.00
2022-07-29T03:49:06.280Z,1028.00
2022-07-29T03:54:38.250Z,1536.00
2022-07-29T04:00:09.750Z,2343.00
2022-07-29T04:02:32.946Z,2745.00
2022-07-29T04:08:04.548Z,4052.00
2022-07-29T04:13:36.792Z,5948.00
2022-07-29T04:19:08.504Z,8325.00
2022-07-29T04:24:44.036Z,10909.00
2022-07-29T04:30:12.081Z,8286.00
2022-07-29T04:35:47.125Z,0.00
2022-07-29T04:41:15.355Z,0.00
2022-07-29T04:46:47.331Z,0.00
2022-07-29T04:52:19.130Z,0.00
2022-07-29T04:57:50.845Z,0.00
2022-07-29T05:03:22.759Z,24215.00
2022-07-29T05:08:54.558Z,24060.00
2022-07-29T05:14:26.417Z,24116.00
2022-07-29T05:19:58.233Z,23459.00
2022-07-29T05:25:42.991Z,23080.00
2022-07-29T05:31:01.748Z,23362.00
2022-07-29T05:36:33.450Z,22767.00
2022-07-29T05:42:05.162Z,20057.00
2022-07-29T05:47:37.144Z,34.00
2022-07-29T05:53:19.421Z,0.00
2022-07-29T05:58:40.727Z,0.00
2022-07-29T06:04:12.449Z,0.00
2022-07-29T06:09:44.360Z,0.00
2022-07-29T06:15:16.211Z,0.00
2022-07-29T06:20:47.680Z,0.00
2022-07-29T06:26:19.385Z,0.00
2022-07-29T06:31:51.215Z,0.00
2022-07-29T06:37:23.447Z,0.00
2022-07-29T06:48:27.735Z,0.00
2022-07-29T06:54:02.663Z,0.00
2022-07-29T06:59:35.577Z,0.00
2022-07-29T07:05:03.198Z,0.00
2022-07-29T07:10:34.931Z,0.00
2022-07-29T07:16:06.590Z,0.00
2022-07-29T07:21:38.389Z,0.00
2022-07-29T07:27:10.189Z,0.00
2022-07-29T07:32:42.137Z,0.00
2022-07-29T07:38:13.663Z,0.00
2022-07-29T07:43:45.528Z,0.00
2022-07-29T07:49:17.637Z,0.00
2022-07-29T07:54:48.977Z,0.00
2022-07-29T08:00:23.274Z,0.00
2022-07-29T08:05:52.412Z,0.00
2022-07-29T08:11:24.002Z,0.00
2022-07-29T08:16:55.860Z,0.00
2022-07-29T08:22:27.555Z,0.00
2022-07-29T08:27:59.559Z,0.00
2022-07-29T08:33:31.586Z,0.00
2022-07-29T08:39:03.935Z,0.00
2022-07-29T08:44:35.862Z,0.00
2022-07-29T08:50:07.697Z,0.00
2022-07-29T08:55:39.726Z,0.00
2022-07-29T09:01:12.417Z,0.00
2022-07-29T09:06:43.529Z,0.00
2022-07-29T09:12:28.910Z,0.00
2022-07-29T09:17:46.943Z,0.00
2022-07-29T09:23:23.058Z,0.00
2022-07-29T09:28:50.629Z,0.00
2022-07-29T09:34:22.445Z,0.00
2022-07-29T09:39:54.185Z,0.00
2022-07-29T09:45:25.928Z,0.00
2022-07-29T09:50:57.791Z,0.00
2022-07-29T09:56:29.277Z,0.00
2022-07-29T10:02:01.082Z,0.00
2022-07-29T10:07:33.085Z,0.00
2022-07-29T10:13:09.001Z,0.00
2022-07-29T10:18:36.714Z,0.00
2022-07-29T10:24:15.109Z,4507.00
2022-07-29T10:29:40.224Z,0.00
2022-07-29T10:35:12.225Z,0.00
2022-07-29T10:40:43.894Z,2276.00
2022-07-29T10:51:47.963Z,3023.00
2022-07-29T11:02:49.880Z,3341.00
2022-07-29T11:08:21.017Z,4188.00
2022-07-29T11:13:53.169Z,14914.00
2022-07-29T11:19:29.885Z,20972.00
2022-07-29T11:24:56.217Z,20130.00
2022-07-29T11:30:35.000Z,13185.00
2022-07-29T11:41:38.318Z,10974.00
2022-07-29T11:47:10.284Z,18420.00
2022-07-29T11:58:13.814Z,6116.00
2022-07-29T12:03:46.157Z,4901.00
2022-07-29T12:17:06.406Z,3018.00
2022-07-29T12:22:37.188Z,599.00
2022-07-29T12:28:08.982Z,3222.00
2022-07-29T12:33:40.514Z,0.00
2022-07-29T12:39:11.745Z,12379.00
2022-07-29T12:55:46.926Z,13897.00
2022-07-29T13:01:18.487Z,18886.00
2022-07-29T13:12:23.078Z,22540.00
2022-07-29T13:17:54.755Z,22299.00
2022-07-29T13:23:26.322Z,23323.00
2022-07-29T13:28:58.048Z,24493.00
2022-07-29T13:34:30.107Z,24272.00
2022-07-29T13:40:01.703Z,21087.00
2022-07-29T13:45:33.896Z,23258.00
2022-07-29T13:51:05.854Z,22725.00
2022-07-29T13:56:38.079Z,22115.00
2022-07-29T14:02:09.880Z,21634.00
2022-07-29T14:13:24.326Z,18944.00
2022-07-29T14:18:43.073Z,20283.00
2022-07-29T14:24:18.069Z,18910.00
2022-07-29T14:29:47.232Z,17382.00
2022-07-29T14:35:19.152Z,18052.00
2022-07-29T14:40:51.081Z,21851.00
2022-07-29T14:46:22.700Z,22564.00
2022-07-29T14:51:54.310Z,23778.00
2022-07-29T14:57:25.919Z,22230.00
2022-07-29T15:03:02.274Z,22269.00
2022-07-29T15:08:29.425Z,20900.00
2022-07-29T15:14:01.098Z,14786.00
2022-07-29T15:25:03.114Z,12052.00
2022-07-29T15:30:34.811Z,12164.00
2022-07-29T15:36:06.676Z,16246.00
2022-07-29T15:41:38.433Z,22119.00
2022-07-29T15:47:10.018Z,23644.00
2022-07-29T15:52:41.415Z,22108.00
2022-07-29T15:58:13.052Z,20863.00
2022-07-29T16:03:46.334Z,21555.00
2022-07-29T16:09:16.293Z,20021.00
2022-07-29T16:14:48.447Z,16910.00
2022-07-29T16:20:20.120Z,14356.00
2022-07-29T16:26:00.541Z,12237.00
2022-07-29T16:31:23.351Z,11631.00
2022-07-29T16:36:54.665Z,9822.00
2022-07-29T16:42:45.555Z,6485.00
2022-07-29T16:48:00.930Z,6280.00
2022-07-29T16:53:30.244Z,7238.00
2022-07-29T16:59:01.057Z,6541.00
2022-07-29T17:04:32.875Z,6054.00
2022-07-29T17:10:04.812Z,5356.00
2022-07-29T17:15:36.546Z,4606.00
2022-07-29T17:21:08.383Z,4064.00
2022-07-29T17:26:40.251Z,2186.00
2022-07-29T17:32:11.953Z,1207.00
2022-07-29T17:37:43.876Z,1031.00
2022-07-29T17:43:16.039Z,1448.00
2022-07-29T17:48:47.654Z,1876.00
2022-07-29T17:54:19.495Z,1771.00
2022-07-29T17:59:51.173Z,1700.00
2022-07-29T18:05:23.209Z,1345.00
2022-07-29T18:10:54.695Z,1023.00
2022-07-29T18:16:26.900Z,759.00
2022-07-29T18:22:03.534Z,632.00
2022-07-29T18:27:30.495Z,555.00
2022-07-29T18:33:20.837Z,500.00
2022-07-29T18:38:34.314Z,404.00
2022-07-29T18:44:05.957Z,282.00
2022-07-29T18:49:37.766Z,209.00
2022-07-29T18:55:09.615Z,116.00
2022-07-29T19:00:41.550Z,76.00
2022-07-29T19:06:13.280Z,47.00
2022-07-29T19:11:44.869Z,30.00
2022-07-29T19:17:16.883Z,18.00
2022-07-29T19:22:48.520Z,14.00
2022-07-29T19:28:20.245Z,12.00
2022-07-29T19:33:51.871Z,11.00
2022-07-29T19:39:35.367Z,8.00
2022-07-29T19:44:55.464Z,10.00
2022-07-29T19:50:27.590Z,11.00
2022-07-29T19:55:59.223Z,10.00
2022-07-29T20:01:31.190Z,9.00
2022-07-29T20:07:03.027Z,10.00
2022-07-29T20:12:34.756Z,10.00
2022-07-29T20:18:06.740Z,4.00
2022-07-29T20:23:38.514Z,2.00
2022-07-29T20:29:10.040Z,2.00
2022-07-29T20:34:41.968Z,4.00
2022-07-29T20:40:13.839Z,3.00
2022-07-29T20:45:45.736Z,2.00
2022-07-29T20:51:17.737Z,2.00
2022-07-29T20:56:49.657Z,3.00
2022-07-29T21:02:22.919Z,4.00
2022-07-29T21:07:58.083Z,4.00
2022-07-29T21:13:26.447Z,2.00
2022-07-29T21:18:58.047Z,2.00
2022-07-29T21:24:32.756Z,2.00
2022-07-29T21:30:05.220Z,4.00
2022-07-29T21:36:07.314Z,4.00
2022-07-29T21:41:09.104Z,4.00
2022-07-29T21:46:41.196Z,2.00
2022-07-29T21:52:13.195Z,4.00
2022-07-29T21:57:45.218Z,3.00
2022-07-29T22:03:17.228Z,3.00
2022-07-29T22:08:52.520Z,3.00
2022-07-29T22:14:24.410Z,2.00
2022-07-29T22:19:56.562Z,2.00
2022-07-29T22:25:28.474Z,1.00
2022-07-29T22:31:00.336Z,2.00
2022-07-29T22:36:32.360Z,2.00
2022-07-29T22:42:04.618Z,2.00
2022-07-29T22:53:08.270Z,1.00
2022-07-29T22:58:40.100Z,2.00
2022-07-29T23:04:12.143Z,0.00
2022-07-29T23:09:43.778Z,2.00
2022-07-29T23:15:15.632Z,0.00
2022-07-29T23:20:47.525Z,2.00
2022-07-29T23:26:19.603Z,1.00
2022-07-29T23:31:51.800Z,1.00
2022-07-29T23:37:23.653Z,1.00
2022-07-29T23:42:55.782Z,2.00
2022-07-29T23:48:27.672Z,1.00
2022-07-29T23:53:59.705Z,1.00
2022-07-29T23:59:31.817Z,2.00
